Time;durP1;ratioP1;P1;durP2;ratioP2;P2;SDS_P1;SDS_P2;PMS_P1;PMS_P2;Temp;Humidity;BMP_temperature;BMP_pressure;BME280_temperature;BME280_humidity;BME280_pressure;Samples;Min_cycle;Max_cycle;Signal;HPM_P1;HPM_P2
2022/03/11 00:01:54;;;;;;;3.53;1.83;;;;;;;25.70;23.27;96857.91;5046612;28;20029;-32
2022/03/11 00:04:20;;;;;;;1.90;1.50;;;;;;;25.69;23.24;96850.97;5048802;28;20036;-31
2022/03/11 00:06:45;;;;;;;2.53;1.50;;;;;;;25.69;23.22;96848.34;5050150;28;20054;-29
2022/03/11 00:09:11;;;;;;;2.42;1.70;;;;;;;25.69;23.36;96853.59;5048598;28;20051;-29
2022/03/11 00:11:37;;;;;;;2.38;1.67;;;;;;;25.69;23.19;96853.59;5048449;28;20032;-31
2022/03/11 00:14:02;;;;;;;2.15;1.45;;;;;;;25.68;23.34;96852.78;5047634;28;20028;-31
2022/03/11 00:16:28;;;;;;;2.22;1.45;;;;;;;25.69;23.19;96850.97;5048998;28;20016;-31
2022/03/11 00:18:53;;;;;;;2.22;1.50;;;;;;;25.68;23.19;96850.16;5047534;28;20031;-31
2022/03/11 00:21:18;;;;;;;2.10;1.60;;;;;;;25.68;23.21;96854.53;5048634;28;20028;-30
2022/03/11 00:23:44;;;;;;;2.40;1.30;;;;;;;25.67;23.13;96850.22;5057422;28;20029;-30
2022/03/11 00:26:09;;;;;;;1.48;1.30;;;;;;;25.62;23.26;96837.31;5059162;28;20028;-33
2022/03/11 00:28:35;;;;;;;2.15;1.70;;;;;;;25.67;23.18;96844.97;5059550;28;20580;-29
2022/03/11 00:31:01;;;;;;;2.63;1.50;;;;;;;25.67;23.11;96844.97;5058046;28;20514;-33
2022/03/11 00:33:26;;;;;;;2.20;1.30;;;;;;;25.65;23.13;96841.56;5060148;28;20053;-29
2022/03/11 00:35:52;;;;;;;2.60;1.50;;;;;;;25.64;23.10;96835.50;5057477;28;20553;-30
2022/03/11 00:38:17;;;;;;;2.10;1.60;;;;;;;25.64;23.23;96835.50;5050587;28;20032;-34
2022/03/11 00:40:43;;;;;;;1.65;1.25;;;;;;;25.64;23.29;96839.88;5048694;28;20036;-30
2022/03/11 00:43:08;;;;;;;1.67;1.40;;;;;;;25.65;23.23;96838.94;5054291;28;20032;-33
2022/03/11 00:45:33;;;;;;;2.58;1.40;;;;;;;25.63;23.27;96838.19;5050712;28;20944;-29
2022/03/11 00:47:59;;;;;;;4.13;1.35;;;;;;;25.64;23.22;96839.88;5047203;28;20033;-28
2022/03/11 00:50:24;;;;;;;2.22;1.67;;;;;;;25.63;23.23;96843.44;5047163;28;20028;-28
2022/03/11 00:52:50;;;;;;;1.45;1.35;;;;;;;25.63;23.16;96840.81;5046796;28;20051;-30
2022/03/11 00:55:15;;;;;;;2.65;1.25;;;;;;;25.62;23.16;96842.56;5048802;28;20058;-26
2022/03/11 00:57:41;;;;;;;2.45;1.30;;;;;;;25.62;23.33;96837.31;5050762;28;20044;-28
2022/03/11 01:00:07;;;;;;;2.25;1.05;;;;;;;25.61;23.25;96833.00;5048662;28;20028;-32
2022/03/11 01:02:34;;;;;;;4.32;1.27;;;;;;;25.61;23.36;96837.41;5060297;28;20025;-30
2022/03/11 01:04:59;;;;;;;2.33;1.30;;;;;;;25.61;23.23;96837.41;5056996;28;20108;-29
2022/03/11 01:07:25;;;;;;;1.75;1.20;;;;;;;25.61;23.26;96834.78;5058291;28;20095;-29
2022/03/11 01:09:50;;;;;;;1.88;1.30;;;;;;;25.60;23.30;96833.09;5057411;28;20028;-30
2022/03/11 01:12:16;;;;;;;1.88;1.33;;;;;;;25.60;23.29;96830.47;5057759;28;20021;-27
2022/03/11 01:14:41;;;;;;;1.45;1.35;;;;;;;25.59;23.27;96831.41;5058919;28;20028;-31
2022/03/11 01:17:06;;;;;;;1.63;1.25;;;;;;;25.59;23.25;96831.41;5059044;28;20042;-29
2022/03/11 01:19:32;;;;;;;1.08;0.98;;;;;;;25.57;23.16;96824.47;5056365;28;20506;-28
2022/03/11 01:21:57;;;;;;;1.95;1.30;;;;;;;25.59;23.33;96821.72;5057880;28;20040;-30
2022/03/11 01:24:23;;;;;;;2.03;1.40;;;;;;;25.59;23.21;96820.91;5057203;28;20025;-30
2022/03/11 01:26:48;;;;;;;1.35;1.25;;;;;;;25.61;23.37;96829.53;5056739;28;20020;-29
2022/03/11 01:29:13;;;;;;;1.58;1.20;;;;;;;25.57;23.24;96821.84;5057375;28;20025;-32
2022/03/11 01:31:39;;;;;;;1.35;1.17;;;;;;;25.55;23.38;96818.41;5058895;28;20028;-30
2022/03/11 01:34:04;;;;;;;1.67;1.17;;;;;;;25.57;23.42;96819.22;5057424;28;20031;-30
2022/03/11 01:36:30;;;;;;;1.88;1.27;;;;;;;25.57;23.38;96824.47;5050268;28;20032;-30
2022/03/11 01:38:56;;;;;;;1.73;1.10;;;;;;;25.57;23.19;96829.72;5048212;28;20028;-29
2022/03/11 01:41:22;;;;;;;1.75;1.20;;;;;;;25.56;23.33;96827.16;5046265;28;20032;-29
2022/03/11 01:44:00;;;;;;;1.27;1.00;;;;;;;25.54;23.19;96821.94;5048766;28;20033;-28
2022/03/11 01:46:28;;;;;;;1.33;1.23;;;;;;;25.55;23.32;96812.31;5045235;28;20063;-33
2022/03/11 01:48:53;;;;;;;2.00;1.20;;;;;;;25.54;23.41;96819.34;5046072;28;20052;-30
2022/03/11 01:51:18;;;;;;;2.38;1.35;;;;;;;25.52;23.09;96815.91;5047376;28;20444;-30
2022/03/11 01:53:44;;;;;;;3.35;1.35;;;;;;;25.55;23.30;96813.16;5028169;28;20024;-26
2022/03/11 01:56:10;;;;;;;1.30;1.20;;;;;;;25.54;23.34;96818.47;5048118;28;20592;-31
2022/03/11 01:58:35;;;;;;;2.05;1.23;;;;;;;25.53;23.27;96820.25;5047531;28;20036;-31
2022/03/11 02:01:02;;;;;;;1.30;1.20;;;;;;;25.53;23.17;96817.63;5047779;28;20028;-33
2022/03/11 02:03:28;;;;;;;1.83;1.10;;;;;;;25.52;23.42;96810.69;5050938;28;20028;-29
2022/03/11 02:05:53;;;;;;;1.67;1.27;;;;;;;25.52;23.27;96815.91;5050793;28;20020;-32
2022/03/11 02:08:19;;;;;;;1.25;1.10;;;;;;;25.52;23.23;96815.91;5051375;28;20035;-31
2022/03/11 02:10:44;;;;;;;1.98;1.05;;;;;;;25.52;23.25;96805.44;5050994;28;20902;-34
2022/03/11 02:13:09;;;;;;;1.95;1.20;;;;;;;25.51;23.24;96803.72;5049758;28;20316;-34
2022/03/11 02:15:35;;;;;;;2.05;1.27;;;;;;;25.51;23.23;96798.50;5050105;28;20020;-31
2022/03/11 02:18:00;;;;;;;4.75;1.20;;;;;;;25.51;23.26;96803.72;5047290;28;20056;-28
2022/03/11 02:20:25;;;;;;;1.50;1.40;;;;;;;25.51;23.34;96803.72;5050187;28;20032;-29
2022/03/11 02:22:52;;;;;;;2.17;1.17;;;;;;;25.51;23.32;96803.72;5056002;28;20090;-25
2022/03/11 02:25:17;;;;;;;1.60;1.00;;;;;;;25.50;23.31;96802.03;5051270;28;20029;-28
2022/03/11 02:27:43;;;;;;;2.60;1.55;;;;;;;25.50;23.26;96807.28;5049381;28;20536;-31
2022/03/11 02:30:15;;;;;;;0.98;0.88;;;;;;;25.49;23.30;96810.84;5049394;28;20024;-31
2022/03/11 02:32:41;;;;;;;2.15;1.25;;;;;;;25.49;23.31;96805.59;5049910;28;20059;-28
2022/03/11 02:35:07;;;;;;;1.45;1.17;;;;;;;25.48;23.34;96803.91;5051435;28;20032;-33
2022/03/11 02:37:33;;;;;;;1.48;1.15;;;;;;;25.47;23.34;96802.19;5051251;28;20036;-28
2022/03/11 02:39:58;;;;;;;2.15;1.20;;;;;;;25.48;23.33;96800.44;5047687;28;20044;-32
2022/03/11 02:42:24;;;;;;;2.05;1.10;;;;;;;25.48;23.41;96793.41;5054638;28;20021;-31
2022/03/11 02:44:49;;;;;;;1.00;0.90;;;;;;;25.48;23.47;96788.19;5050676;28;20024;-31
2022/03/11 02:47:14;;;;;;;2.05;1.00;;;;;;;25.47;23.32;96789.06;5050560;28;20032;-30
2022/03/11 02:49:40;;;;;;;2.15;1.10;;;;;;;25.47;23.31;96790.88;5055099;28;20087;-32
2022/03/11 02:52:06;;;;;;;1.90;1.10;;;;;;;25.46;23.36;96784.75;5059760;28;20075;-27
2022/03/11 02:54:31;;;;;;;1.77;1.00;;;;;;;25.47;23.46;96789.06;5056342;28;20055;-29
2022/03/11 02:56:56;;;;;;;2.10;1.10;;;;;;;25.45;23.34;96788.31;5058275;28;20059;-31
2022/03/11 02:59:22;;;;;;;1.25;1.10;;;;;;;25.46;23.38;96792.63;5058900;28;20032;-30
2022/03/11 03:01:47;;;;;;;1.10;1.00;;;;;;;25.45;23.28;96785.69;5058650;28;20516;-30
2022/03/11 03:04:13;;;;;;;1.27;1.08;;;;;;;25.44;23.46;96779.59;5059506;28;20755;-29
2022/03/11 03:06:39;;;;;;;1.20;0.98;;;;;;;25.45;23.38;96777.84;5056950;28;20107;-33
2022/03/11 03:09:04;;;;;;;2.55;1.35;;;;;;;25.46;23.32;96779.53;5056586;28;20078;-28
2022/03/11 03:11:29;;;;;;;0.80;0.80;;;;;;;25.45;23.46;96777.84;5056312;28;20445;-30
2022/03/11 03:13:55;;;;;;;1.10;1.00;;;;;;;25.44;23.40;96771.72;5060055;28;20044;-30
2022/03/11 03:16:20;;;;;;;1.65;1.20;;;;;;;25.44;23.43;96770.91;5061550;28;20036;-33
2022/03/11 03:18:45;;;;;;;1.00;0.90;;;;;;;25.44;23.40;96776.16;5057329;28;20612;-31
2022/03/11 03:21:11;;;;;;;1.65;1.20;;;;;;;25.44;23.34;96770.91;5058982;28;20028;-28
2022/03/11 03:23:36;;;;;;;1.35;1.00;;;;;;;25.43;23.37;96769.19;5059440;28;20040;-32
2022/03/11 03:26:02;;;;;;;2.28;1.17;;;;;;;25.43;23.47;96763.94;5058475;28;20577;-30
2022/03/11 03:28:27;;;;;;;1.02;0.88;;;;;;;25.43;23.35;96766.56;5051469;28;20028;-28
2022/03/11 03:30:53;;;;;;;1.55;1.00;;;;;;;25.41;23.25;96764.03;5053991;28;20036;-31
2022/03/11 03:33:18;;;;;;;2.15;1.10;;;;;;;25.42;23.47;96772.72;5058986;28;20051;-31
2022/03/11 03:35:43;;;;;;;1.27;1.10;;;;;;;25.41;23.40;96776.28;5060112;28;20043;-29
2022/03/11 03:38:09;;;;;;;1.30;0.88;;;;;;;25.42;23.36;96777.97;5058959;28;20450;-31
2022/03/11 03:40:34;;;;;;;1.58;0.88;;;;;;;25.41;23.30;96776.28;5057334;28;20538;-28
2022/03/11 03:43:00;;;;;;;1.05;0.90;;;;;;;25.40;23.43;96764.94;5053504;28;20040;-25
2022/03/11 03:45:25;;;;;;;1.10;0.90;;;;;;;25.40;23.45;96758.88;5060773;28;20032;-29
2022/03/11 03:47:50;;;;;;;1.30;0.90;;;;;;;25.38;23.46;96764.19;5056795;28;20048;-29
2022/03/11 03:50:16;;;;;;;1.23;0.98;;;;;;;25.39;23.38;96767.63;5056638;28;20090;-26
2022/03/11 03:52:42;;;;;;;1.77;1.10;;;;;;;25.38;23.49;96772.06;5053550;28;20043;-33
2022/03/11 03:55:08;;;;;;;1.23;0.98;;;;;;;25.39;23.55;96772.88;5057529;28;20028;-34
2022/03/11 03:57:33;;;;;;;1.40;1.08;;;;;;;25.39;23.39;96762.38;5048279;28;20028;-29
2022/03/11 03:59:59;;;;;;;6.35;2.10;;;;;;;25.39;23.38;96757.16;5051502;28;20097;-34
2022/03/11 04:02:24;;;;;;;7.93;2.58;;;;;;;25.37;23.33;96766.88;5056064;28;20386;-31
2022/03/11 04:04:50;;;;;;;3.20;1.25;;;;;;;25.35;23.32;96763.50;5060047;28;20036;-28
2022/03/11 04:07:15;;;;;;;1.85;1.23;;;;;;;25.35;23.23;96758.25;5058421;28;20024;-27
2022/03/11 04:09:41;;;;;;;2.30;1.50;;;;;;;25.34;23.58;96761.78;5054858;28;20634;-30
2022/03/11 04:12:07;;;;;;;1.27;1.10;;;;;;;25.33;23.51;96763.59;5019245;28;20561;-29
2022/03/11 04:14:32;;;;;;;2.72;1.15;;;;;;;25.33;23.30;96763.59;5056887;28;20028;-28
2022/03/11 04:16:58;;;;;;;1.70;1.40;;;;;;;25.34;23.38;96764.41;5058654;28;20074;-28
2022/03/11 04:19:23;;;;;;;2.95;1.15;;;;;;;25.33;23.68;96758.34;5057654;28;20043;-29
2022/03/11 04:21:48;;;;;;;2.17;1.50;;;;;;;25.33;23.45;96757.47;5058339;28;20039;-26
2022/03/11 04:24:14;;;;;;;2.28;1.25;;;;;;;25.31;23.54;96755.78;5055189;28;20028;-24
2022/03/11 04:26:44;;;;;;;4.10;0.93;;;;;;;25.33;23.51;96767.97;5055112;28;20021;-30
2022/03/11 04:29:10;;;;;;;1.98;1.13;;;;;;;25.31;23.49;96762.78;5057927;28;20121;-32
2022/03/11 04:31:35;;;;;;;1.65;1.05;;;;;;;25.31;23.40;96753.16;5057267;28;20032;-29
2022/03/11 04:34:02;;;;;;;1.65;1.23;;;;;;;25.31;23.57;96761.03;5050712;28;20028;-29
2022/03/11 04:36:28;;;;;;;1.30;1.10;;;;;;;25.31;23.50;96760.16;5047863;28;20544;-30
2022/03/11 04:38:54;;;;;;;2.25;1.02;;;;;;;25.31;23.55;96760.16;5053928;28;20031;-30
2022/03/11 04:41:19;;;;;;;1.65;1.15;;;;;;;25.31;23.54;96757.56;5057525;28;20024;-31
2022/03/11 04:43:45;;;;;;;1.10;0.98;;;;;;;25.30;23.46;96764.59;5056881;28;20755;-28
2022/03/11 04:46:10;;;;;;;1.10;0.90;;;;;;;25.30;23.62;96759.34;5054569;28;20043;-29
2022/03/11 04:48:36;;;;;;;1.75;1.00;;;;;;;25.30;23.53;96761.97;5055604;28;20510;-30
2022/03/11 04:51:04;;;;;;;4.63;1.10;;;;;;;25.30;23.46;96769.84;5056780;28;20037;-31
2022/03/11 04:53:29;;;;;;;3.17;1.10;;;;;;;25.30;23.40;96767.22;5056881;28;20024;-29
2022/03/11 04:55:55;;;;;;;1.20;0.90;;;;;;;25.30;23.48;96768.97;5054803;28;20109;-29
2022/03/11 04:58:20;;;;;;;1.77;1.05;;;;;;;25.29;23.45;96768.13;5057608;28;20033;-27
2022/03/11 05:00:46;;;;;;;2.08;1.10;;;;;;;25.28;23.58;96763.81;5056787;28;20028;-29
2022/03/11 05:03:11;;;;;;;1.08;0.90;;;;;;;25.29;23.42;96762.03;5052737;28;20907;-28
2022/03/11 05:05:37;;;;;;;1.45;1.00;;;;;;;25.28;23.53;96762.97;5054329;28;20036;-33
2022/03/11 05:08:02;;;;;;;1.42;0.90;;;;;;;25.28;23.53;96771.66;5056999;28;20089;-31
2022/03/11 05:10:28;;;;;;;1.50;1.02;;;;;;;25.27;23.53;96769.97;5052978;28;20564;-34
2022/03/11 05:12:53;;;;;;;1.30;0.95;;;;;;;25.27;23.47;96764.75;5051337;28;20032;-32
2022/03/11 05:15:19;;;;;;;1.17;0.90;;;;;;;25.28;23.49;96768.22;5051776;28;20402;-34
2022/03/11 05:17:45;;;;;;;1.98;1.13;;;;;;;25.28;23.46;96765.59;5055478;28;20020;-33
2022/03/11 05:20:11;;;;;;;1.00;0.85;;;;;;;25.28;23.38;96760.34;5052143;28;20036;-31
2022/03/11 05:22:36;;;;;;;1.85;0.82;;;;;;;25.26;23.49;96768.28;5056892;28;20025;-28
2022/03/11 05:25:02;;;;;;;1.40;0.77;;;;;;;25.27;23.37;96769.13;5054358;28;20509;-31
2022/03/11 05:27:27;;;;;;;1.58;0.52;;;;;;;25.26;23.59;96772.69;5047154;28;20051;-32
2022/03/11 05:29:53;;;;;;;1.60;0.90;;;;;;;25.26;23.46;96763.03;5056805;28;20078;-27
2022/03/11 05:32:20;;;;;;;0.98;0.88;;;;;;;25.26;23.55;96762.19;5057799;28;20028;-28
2022/03/11 05:34:46;;;;;;;0.80;0.70;;;;;;;25.26;23.60;96762.19;5057163;28;20028;-31
2022/03/11 05:37:11;;;;;;;1.15;0.95;;;;;;;25.25;23.14;96761.34;5057043;28;20089;-30
2022/03/11 05:39:37;;;;;;;1.85;0.80;;;;;;;25.25;23.56;96771.81;5059080;28;20118;-29
2022/03/11 05:42:03;;;;;;;1.75;1.02;;;;;;;25.24;23.42;96770.13;5061295;28;20077;-31
2022/03/11 05:44:28;;;;;;;1.20;1.00;;;;;;;25.24;23.55;96775.38;5061729;28;20031;-34
2022/03/11 05:46:55;;;;;;;2.58;0.93;;;;;;;25.24;23.49;96772.75;5061740;28;20032;-31
2022/03/11 05:49:20;;;;;;;1.15;1.05;;;;;;;25.25;23.44;96776.22;5062342;28;20085;-29
2022/03/11 05:51:45;;;;;;;1.00;0.70;;;;;;;25.24;23.70;96770.13;5058482;28;20028;-27
2022/03/11 05:54:11;;;;;;;1.00;0.70;;;;;;;25.23;23.50;96772.81;5058958;28;20082;-30
2022/03/11 05:56:37;;;;;;;1.25;0.90;;;;;;;25.23;23.63;96778.94;5056186;28;20390;-31
2022/03/11 05:59:03;;;;;;;1.33;0.70;;;;;;;25.22;23.50;96777.25;5057615;28;20032;-30
2022/03/11 06:01:28;;;;;;;1.17;0.80;;;;;;;25.22;23.47;96777.25;5062654;28;20036;-33
2022/03/11 06:03:54;;;;;;;0.95;0.90;;;;;;;25.21;23.51;96775.56;5062923;28;20517;-29
2022/03/11 06:06:19;;;;;;;1.40;1.02;;;;;;;25.21;23.54;96780.81;5060893;28;20080;-30
2022/03/11 06:08:45;;;;;;;0.70;0.70;;;;;;;25.21;23.51;96779.94;5063556;28;20498;-30
2022/03/11 06:11:10;;;;;;;1.02;0.93;;;;;;;25.20;23.50;96784.31;5060608;28;20037;-28
2022/03/11 06:13:36;;;;;;;1.45;0.98;;;;;;;25.21;23.73;96780.81;5060167;28;20039;-34
2022/03/11 06:16:02;;;;;;;1.40;0.80;;;;;;;25.21;23.64;96785.19;5063152;28;20027;-33
2022/03/11 06:18:27;;;;;;;1.52;0.90;;;;;;;25.20;23.57;96784.31;5062498;28;20604;-30
2022/03/11 06:20:53;;;;;;;0.85;0.77;;;;;;;25.20;23.48;96786.94;5060282;28;20063;-30
2022/03/11 06:23:18;;;;;;;1.15;0.88;;;;;;;25.19;23.52;96782.63;5061167;28;20028;-30
2022/03/11 06:25:44;;;;;;;1.25;1.00;;;;;;;25.20;23.51;96788.75;5062323;28;20074;-30
2022/03/11 06:28:09;;;;;;;0.90;0.80;;;;;;;25.19;23.54;96790.50;5062107;28;20047;-31
2022/03/11 06:30:35;;;;;;;1.25;0.68;;;;;;;25.20;23.60;96800.06;5062186;28;20024;-28
2022/03/11 06:33:00;;;;;;;1.10;1.00;;;;;;;25.20;23.57;96792.19;5056207;28;20025;-28
2022/03/11 06:35:25;;;;;;;1.08;0.80;;;;;;;25.18;23.52;96787.03;5058463;28;20469;-31
2022/03/11 06:37:51;;;;;;;2.25;0.70;;;;;;;25.18;23.49;96786.19;5059906;28;20028;-32
2022/03/11 06:40:17;;;;;;;1.15;0.80;;;;;;;25.19;23.63;96782.63;5060668;28;20039;-30
2022/03/11 06:42:44;;;;;;;0.70;0.70;;;;;;;25.18;23.69;96787.03;5057544;28;20031;-27
2022/03/11 06:45:10;;;;;;;1.30;1.08;;;;;;;25.17;23.48;96777.47;5054905;28;20033;-30
2022/03/11 06:47:35;;;;;;;1.17;0.95;;;;;;;25.18;23.46;96768.66;5059146;28;20021;-27
2022/03/11 06:50:01;;;;;;;1.63;0.95;;;;;;;25.18;23.62;96776.53;5060579;28;20032;-31
2022/03/11 06:52:26;;;;;;;1.33;0.90;;;;;;;25.17;23.60;96771.38;5060054;28;20041;-30
2022/03/11 06:54:52;;;;;;;1.13;0.90;;;;;;;25.18;23.74;96779.16;5057397;28;20055;-28
2022/03/11 06:57:17;;;;;;;1.42;0.80;;;;;;;25.18;23.54;96773.06;5057036;28;20016;-28
2022/03/11 06:59:43;;;;;;;1.10;0.80;;;;;;;25.17;23.72;96774.84;5054540;28;20017;-32
2022/03/11 07:02:09;;;;;;;1.10;0.90;;;;;;;25.17;23.57;96781.88;5058360;28;20028;-28
2022/03/11 07:04:34;;;;;;;0.70;0.70;;;;;;;25.17;23.71;96789.75;5059114;28;20493;-30
2022/03/11 07:07:00;;;;;;;0.60;0.60;;;;;;;25.17;23.59;96784.50;5060175;28;20025;-31
2022/03/11 07:09:25;;;;;;;1.08;0.90;;;;;;;25.17;23.68;96785.34;5061263;28;20044;-31
2022/03/11 07:11:52;;;;;;;4.45;2.10;;;;;;;25.17;23.57;96789.75;5051982;28;20040;-32
2022/03/11 07:14:18;;;;;;;4.00;2.03;;;;;;;25.15;23.65;96787.19;5057913;28;20430;-30
2022/03/11 07:16:43;;;;;;;1.25;1.15;;;;;;;25.16;23.49;96788.03;5056455;28;20029;-31
2022/03/11 07:19:08;;;;;;;3.38;0.98;;;;;;;25.14;23.72;96795.97;5053393;28;20055;-30
2022/03/11 07:21:34;;;;;;;3.65;1.30;;;;;;;25.16;23.65;96795.91;5058049;28;20039;-27
2022/03/11 07:23:59;;;;;;;3.47;1.00;;;;;;;25.15;23.50;96802.06;5053938;28;20032;-30
2022/03/11 07:26:24;;;;;;;2.45;0.82;;;;;;;25.15;23.76;96800.31;5050799;28;20551;-32
2022/03/11 07:28:50;;;;;;;6.20;1.10;;;;;;;25.14;23.68;96793.34;5056436;28;20443;-26
2022/03/11 07:31:15;;;;;;;1.70;0.90;;;;;;;25.14;23.60;96795.13;5055673;28;20083;-30
2022/03/11 07:33:41;;;;;;;6.55;1.40;;;;;;;25.15;23.68;96794.19;5052955;28;20028;-32
2022/03/11 07:36:06;;;;;;;6.38;1.40;;;;;;;25.15;23.73;96794.19;5054772;28;20028;-27
2022/03/11 07:38:32;;;;;;;4.70;1.33;;;;;;;25.16;23.69;96798.50;5054159;28;20024;-27
2022/03/11 07:40:58;;;;;;;3.72;1.50;;;;;;;25.16;23.70;96798.50;5043784;28;20043;-29
2022/03/11 07:43:25;;;;;;;3.08;1.65;;;;;;;25.17;23.85;96801.06;5045872;28;20028;-27
2022/03/11 07:45:50;;;;;;;7.45;1.85;;;;;;;25.18;23.71;96794.06;5047557;28;20035;-25
2022/03/11 07:48:16;;;;;;;5.55;1.83;;;;;;;25.19;23.71;96793.13;5047505;28;20063;-29
2022/03/11 07:50:41;;;;;;;4.22;2.13;;;;;;;25.18;23.69;96794.88;5048160;28;20035;-27
2022/03/11 07:53:07;;;;;;;4.20;2.40;;;;;;;25.20;23.96;96799.22;5048155;28;20311;-28
2022/03/11 07:55:32;;;;;;;8.60;2.17;;;;;;;25.20;23.91;96794.81;5041237;28;20040;-28
2022/03/11 07:57:57;;;;;;;6.50;2.20;;;;;;;25.21;23.82;96791.28;5039559;28;20044;-33
2022/03/11 08:00:23;;;;;;;5.03;2.30;;;;;;;25.22;23.81;96798.22;5045401;28;20569;-27
2022/03/11 08:02:49;;;;;;;5.82;2.20;;;;;;;25.22;23.92;96798.22;5048791;28;20020;-30
2022/03/11 08:05:14;;;;;;;5.60;2.40;;;;;;;25.24;23.87;96801.59;5048117;28;20021;-29
2022/03/11 08:07:44;;;;;;;3.95;2.20;;;;;;;25.23;24.04;96794.66;5051328;28;20035;-32
2022/03/11 08:10:09;;;;;;;4.72;2.20;;;;;;;25.25;23.98;96792.81;5047232;28;20059;-30
2022/03/11 08:12:36;;;;;;;10.73;2.50;;;;;;;25.26;24.05;96791.91;5049958;28;20135;-30
2022/03/11 08:15:02;;;;;;;6.75;2.58;;;;;;;25.27;24.13;96782.25;5048895;28;20028;-27
2022/03/11 08:17:28;;;;;;;8.25;2.70;;;;;;;25.28;24.11;96786.59;5049258;28;20024;-28
2022/03/11 08:19:53;;;;;;;4.53;2.28;;;;;;;25.30;23.93;96784.72;5044880;28;20028;-27
2022/03/11 08:22:19;;;;;;;5.40;2.70;;;;;;;25.31;23.92;96784.63;5046050;28;23775;-31
2022/03/11 08:24:44;;;;;;;9.45;2.70;;;;;;;25.31;24.10;96776.78;5045262;28;20028;-30
2022/03/11 08:27:11;;;;;;;9.50;2.80;;;;;;;25.34;24.18;96786.25;5049953;28;20028;-26
2022/03/11 08:29:37;;;;;;;7.18;2.88;;;;;;;25.35;24.21;96787.94;5046992;28;20075;-31
2022/03/11 08:32:03;;;;;;;7.55;2.45;;;;;;;25.37;24.09;96780.00;5046902;28;20110;-31
2022/03/11 08:34:29;;;;;;;7.38;2.40;;;;;;;25.38;24.04;96781.69;5048286;28;20025;-31
2022/03/11 08:36:54;;;;;;;8.40;2.90;;;;;;;25.39;24.14;96783.38;5048147;28;20055;-28
2022/03/11 08:39:20;;;;;;;4.85;2.63;;;;;;;25.40;24.03;96779.84;5049067;28;21002;-30
2022/03/11 08:41:46;;;;;;;5.80;2.85;;;;;;;25.42;24.12;96777.97;5031889;28;20024;-29
2022/03/11 08:44:12;;;;;;;5.28;3.00;;;;;;;25.43;23.99;96779.66;5030111;28;20237;-26
2022/03/11 08:46:38;;;;;;;6.50;3.95;;;;;;;25.44;23.58;96770.91;5031343;28;20659;-29
2022/03/11 08:49:03;;;;;;;6.07;2.80;;;;;;;25.46;23.86;96774.28;5031871;28;20082;-28
2022/03/11 08:51:29;;;;;;;4.75;2.50;;;;;;;25.44;23.91;96771.72;5033428;28;20029;-26
2022/03/11 08:53:54;;;;;;;8.38;2.83;;;;;;;25.46;24.04;96771.66;5030280;28;20097;-30
2022/03/11 08:56:22;;;;;;;5.90;3.05;;;;;;;25.46;23.93;96766.41;5031042;28;20968;-30
2022/03/11 08:58:48;;;;;;;5.68;2.90;;;;;;;25.48;24.07;96764.56;5037122;28;20104;-31
2022/03/11 09:01:14;;;;;;;4.80;2.45;;;;;;;25.49;24.14;96762.75;5039574;28;20047;-34
2022/03/11 09:03:39;;;;;;;7.32;2.53;;;;;;;25.50;24.24;96764.47;5047478;28;20055;-29
2022/03/11 09:06:05;;;;;;;5.68;2.25;;;;;;;25.50;24.07;96749.56;5047710;28;20032;-27
2022/03/11 09:08:30;;;;;;;10.05;8.50;;;;;;;25.50;22.84;96749.56;5048206;28;20075;-29
2022/03/11 09:10:56;;;;;;;20.23;12.50;;;;;;;25.39;18.99;96751.91;5047301;28;20050;-30
2022/03/11 09:13:21;;;;;;;16.67;11.52;;;;;;;25.20;18.23;96750.22;5045972;28;20024;-28
2022/03/11 09:15:46;;;;;;;15.80;12.38;;;;;;;25.02;17.98;96749.41;5045620;28;20137;-25
2022/03/11 09:18:12;;;;;;;16.33;12.10;;;;;;;24.82;17.20;96751.22;5042666;28;20021;-29
2022/03/11 09:20:38;;;;;;;17.65;13.18;;;;;;;24.63;16.21;96751.28;5046330;28;20139;-28
2022/03/11 09:23:04;;;;;;;17.02;12.95;;;;;;;24.40;16.17;96748.84;5048820;28;20089;-28
2022/03/11 09:25:29;;;;;;;15.63;12.85;;;;;;;24.19;16.62;96739.41;5046460;28;20759;-30
2022/03/11 09:27:55;;;;;;;18.83;12.55;;;;;;;23.99;16.31;96736.75;5043798;28;20047;-23
2022/03/11 09:30:20;;;;;;;15.75;13.50;;;;;;;23.80;15.95;96733.31;5054486;28;20087;-28
2022/03/11 09:32:46;;;;;;;18.23;12.95;;;;;;;23.61;16.45;96740.22;5055218;28;20037;-30
2022/03/11 09:35:12;;;;;;;18.95;12.50;;;;;;;23.48;16.81;96734.69;5054384;28;20035;-25
2022/03/11 09:37:38;;;;;;;14.15;11.88;;;;;;;23.42;17.19;96729.75;5049490;28;20033;-29
2022/03/11 09:40:04;;;;;;;16.33;9.57;;;;;;;23.41;17.99;96725.41;5040492;28;20032;-26
2022/03/11 09:42:30;;;;;;;12.15;8.52;;;;;;;23.44;18.15;96730.53;5045395;28;20648;-26
2022/03/11 09:44:55;;;;;;;13.00;7.43;;;;;;;23.49;18.71;96728.53;5043367;28;20022;-32
2022/03/11 09:47:21;;;;;;;8.90;7.20;;;;;;;23.56;19.05;96726.50;5046350;28;20044;-30
2022/03/11 09:49:47;;;;;;;13.40;7.35;;;;;;;23.64;19.19;96726.16;5047612;28;20031;-33
2022/03/11 09:52:13;;;;;;;12.63;7.10;;;;;;;23.73;19.50;96720.53;5047945;28;20055;-31
2022/03/11 09:54:38;;;;;;;11.55;6.68;;;;;;;23.83;19.81;96720.09;5047746;28;20762;-31
2022/03/11 09:57:04;;;;;;;12.05;6.63;;;;;;;23.91;19.88;96719.72;5054596;28;20025;-31
2022/03/11 09:59:29;;;;;;;12.45;6.43;;;;;;;23.93;19.81;96713.50;5029820;28;20036;-26
2022/03/11 10:01:55;;;;;;;9.43;6.45;;;;;;;24.06;20.03;96719.00;5031394;28;20036;-32
2022/03/11 10:04:21;;;;;;;11.63;5.50;;;;;;;24.14;20.25;96723.94;5012650;28;20027;-33
2022/03/11 10:06:47;;;;;;;10.10;5.78;;;;;;;24.20;20.14;96721.00;5011549;28;20067;-30
2022/03/11 10:09:18;;;;;;;8.98;5.75;;;;;;;24.26;20.28;96725.09;5009869;28;20601;-31
2022/03/11 10:11:52;;;;;;;7.82;5.63;;;;;;;24.32;20.26;96729.22;5009408;28;20580;-28
2022/03/11 10:14:18;;;;;;;7.70;5.60;;;;;;;24.39;20.59;96730.59;5008616;28;20029;-28
2022/03/11 10:16:46;;;;;;;8.98;5.20;;;;;;;24.43;20.49;96720.81;5010082;28;20036;-26
2022/03/11 10:19:15;;;;;;;11.70;5.50;;;;;;;24.48;20.62;96719.66;5010157;28;20032;-26
2022/03/11 10:21:43;;;;;;;8.27;5.50;;;;;;;24.52;20.78;96720.38;5002246;28;20175;-30
2022/03/11 10:24:18;;;;;;;7.30;5.00;;;;;;;24.55;20.99;96712.34;5013398;28;20509;-25
2022/03/11 10:26:44;;;;;;;8.05;5.38;;;;;;;24.59;20.89;96716.53;5020647;28;20154;-31
2022/03/11 10:29:15;;;;;;;8.75;5.00;;;;;;;24.63;21.10;96714.59;5019496;28;20032;-32
2022/03/11 10:31:43;;;;;;;9.23;5.13;;;;;;;24.67;21.06;96718.75;5024017;28;20024;-25
2022/03/11 10:34:34;;;;;;;8.18;4.80;;;;;;;24.70;21.20;96718.59;5019861;28;20029;-29
2022/03/11 10:37:07;;;;;;;10.48;4.90;;;;;;;24.74;20.98;96720.16;5018946;28;20129;-26
2022/03/11 10:39:33;;;;;;;7.18;4.50;;;;;;;24.77;21.21;96716.53;5020699;28;20036;-31
2022/03/11 10:42:23;;;;;;;12.23;4.75;;;;;;;24.80;21.22;96711.97;5024083;28;20038;-25
2022/03/11 10:44:59;;;;;;;8.30;4.55;;;;;;;24.83;21.22;96713.63;5021531;28;20036;-32
2022/03/11 10:47:27;;;;;;;6.45;4.20;;;;;;;24.85;21.24;96706.53;5018644;28;20025;-33
2022/03/11 10:49:54;;;;;;;8.02;4.63;;;;;;;24.87;21.42;96709.09;5021746;28;20055;-25
2022/03/11 10:52:30;;;;;;;9.43;4.70;;;;;;;24.89;21.37;96707.22;5021298;28;20036;-26
2022/03/11 10:54:56;;;;;;;7.45;4.20;;;;;;;24.92;21.57;96707.09;5022077;28;20025;-25
2022/03/11 10:57:24;;;;;;;6.90;4.63;;;;;;;24.93;21.40;96700.91;5015913;28;20033;-26
2022/03/11 10:59:49;;;;;;;6.18;4.07;;;;;;;24.94;21.60;96707.84;5021762;28;20059;-29
2022/03/11 11:02:15;;;;;;;9.88;7.20;;;;;;;24.96;21.06;96711.25;5053711;28;20672;-26
2022/03/11 11:04:42;;;;;;;15.98;10.18;;;;;;;24.94;19.83;96705.22;5034294;28;20128;-28
2022/03/11 11:07:07;;;;;;;15.57;9.95;;;;;;;24.91;19.16;96700.16;5050978;28;20035;-27
2022/03/11 11:09:32;;;;;;;12.80;9.75;;;;;;;24.86;18.92;96692.50;5049070;28;20024;-27
2022/03/11 11:11:58;;;;;;;15.77;9.65;;;;;;;24.84;18.62;96689.13;5048532;28;20024;-30
2022/03/11 11:14:24;;;;;;;9.88;7.03;;;;;;;24.81;18.67;96691.88;5052652;28;20043;-34
2022/03/11 11:16:50;;;;;;;8.40;4.60;;;;;;;24.79;19.34;96686.69;5056097;28;20102;-32
2022/03/11 11:19:19;;;;;;;7.30;4.72;;;;;;;24.80;19.69;96677.91;5056979;28;20133;-36
2022/03/11 11:21:48;;;;;;;13.93;5.30;;;;;;;24.83;20.08;96676.06;5038060;28;20028;-32
2022/03/11 11:24:21;;;;;;;9.45;4.85;;;;;;;24.85;20.19;96679.47;5039115;28;20042;-28
2022/03/11 11:26:52;;;;;;;9.57;5.03;;;;;;;24.86;20.43;96674.16;5054214;28;20024;-28